createdAt,value
2022-11-16T00:01:28.333Z,90.12
2022-11-16T00:03:57.151Z,90.15
2022-11-16T00:06:23.992Z,90.32
2022-11-16T00:09:12.644Z,90.23
2022-11-16T00:11:39.164Z,90.46
2022-11-16T00:14:06.291Z,90.39
2022-11-16T00:16:33.952Z,90.36
2022-11-16T00:19:03.238Z,89.33
2022-11-16T00:21:30.746Z,89.42
2022-11-16T00:23:57.397Z,89.68
2022-11-16T00:26:24.386Z,89.71
2022-11-16T00:28:53.011Z,90.05
2022-11-16T00:31:19.397Z,90.13
2022-11-16T00:33:48.160Z,89.92
2022-11-16T00:36:15.341Z,90.27
2022-11-16T00:38:42.033Z,90.24
2022-11-16T00:41:09.610Z,90.74
2022-11-16T00:43:36.944Z,90.41
2022-11-16T00:46:03.795Z,90.55
2022-11-16T00:48:30.640Z,90.92
2022-11-16T00:50:57.706Z,91.24
2022-11-16T00:53:24.001Z,90.92
2022-11-16T00:55:50.309Z,90.79
2022-11-16T00:58:16.714Z,91.11
2022-11-16T01:00:43.901Z,91.21
2022-11-16T01:03:10.708Z,91.72
2022-11-16T01:05:37.409Z,91.80
2022-11-16T01:08:03.987Z,91.93
2022-11-16T01:10:30.633Z,92.12
2022-11-16T01:12:56.970Z,92.25
2022-11-16T01:15:25.892Z,92.49
2022-11-16T01:17:54.145Z,92.41
2022-11-16T01:20:26.449Z,92.18
2022-11-16T01:22:53.191Z,92.33
2022-11-16T01:25:20.038Z,92.39
2022-11-16T01:27:47.065Z,92.47
2022-11-16T01:30:14.544Z,92.54
2022-11-16T01:32:40.896Z,92.69
2022-11-16T01:35:07.921Z,92.88
2022-11-16T01:37:34.303Z,92.71
2022-11-16T01:40:00.633Z,92.84
2022-11-16T01:42:28.774Z,92.84
2022-11-16T01:44:57.142Z,92.80
2022-11-16T01:47:23.691Z,93.06
2022-11-16T01:49:56.238Z,93.09
2022-11-16T01:52:26.961Z,93.15
2022-11-16T01:54:54.176Z,92.96
2022-11-16T01:57:25.526Z,93.11
2022-11-16T01:59:54.767Z,93.00
2022-11-16T02:02:21.257Z,92.96
2022-11-16T02:04:50.707Z,93.38
2022-11-16T02:07:28.145Z,93.18
2022-11-16T02:10:13.244Z,93.20
2022-11-16T02:12:52.026Z,93.15
2022-11-16T02:15:27.354Z,92.72
2022-11-16T02:17:56.638Z,92.65
2022-11-16T02:20:25.919Z,93.03
2022-11-16T02:23:19.293Z,93.03
2022-11-16T02:26:04.478Z,93.01
2022-11-16T02:28:46.210Z,93.12
2022-11-16T02:31:23.482Z,93.24
2022-11-16T02:33:52.811Z,93.05
2022-11-16T02:36:22.942Z,92.97
2022-11-16T02:38:58.725Z,93.06
2022-11-16T02:41:28.416Z,93.33
2022-11-16T02:44:01.513Z,93.06
2022-11-16T02:46:31.909Z,93.04
2022-11-16T02:49:03.410Z,93.27
2022-11-16T02:51:31.684Z,93.30
2022-11-16T02:54:12.576Z,93.18
2022-11-16T02:56:47.160Z,93.48
2022-11-16T02:59:17.504Z,93.74
2022-11-16T03:02:07.408Z,93.56
2022-11-16T03:04:45.896Z,93.29
2022-11-16T03:07:16.084Z,93.47
2022-11-16T03:09:44.456Z,93.10
2022-11-16T03:12:16.529Z,93.11
2022-11-16T03:15:03.043Z,93.16
2022-11-16T03:17:34.162Z,93.68
2022-11-16T03:20:17.024Z,93.62
2022-11-16T03:22:52.868Z,93.40
2022-11-16T03:25:22.416Z,93.32
2022-11-16T03:28:07.029Z,92.82
2022-11-16T03:30:40.112Z,93.36
2022-11-16T03:33:31.507Z,93.62
2022-11-16T03:36:24.092Z,93.81
2022-11-16T03:38:52.669Z,94.01
2022-11-16T03:41:22.172Z,94.07
2022-11-16T03:43:50.380Z,94.02
2022-11-16T03:46:17.670Z,94.22
2022-11-16T03:48:44.014Z,94.25
2022-11-16T03:51:11.227Z,94.64
2022-11-16T03:53:37.600Z,94.51
2022-11-16T03:56:04.213Z,94.61
2022-11-16T03:58:31.531Z,94.47
2022-11-16T04:00:58.121Z,94.52
2022-11-16T04:03:24.616Z,94.81
2022-11-16T04:06:09.906Z,94.41
2022-11-16T04:08:54.590Z,94.36
2022-11-16T04:11:40.283Z,94.53
2022-11-16T04:14:32.093Z,94.35
2022-11-16T04:17:16.963Z,94.29
2022-11-16T04:20:01.562Z,94.36
2022-11-16T04:23:09.449Z,94.54
2022-11-16T04:25:39.395Z,94.13
2022-11-16T04:28:16.433Z,94.63
2022-11-16T04:31:31.125Z,94.50
2022-11-16T04:34:16.044Z,94.53
2022-11-16T04:37:00.663Z,94.69
2022-11-16T04:39:26.958Z,94.33
2022-11-16T04:42:11.504Z,94.44
2022-11-16T04:44:56.466Z,94.04
2022-11-16T04:47:22.753Z,94.37
2022-11-16T04:49:49.085Z,93.76
2022-11-16T04:52:15.495Z,94.18
2022-11-16T04:54:41.806Z,93.83
2022-11-16T04:57:08.161Z,94.35
2022-11-16T04:59:34.457Z,94.24
2022-11-16T05:02:09.860Z,94.78
2022-11-16T05:04:42.132Z,94.44
2022-11-16T05:07:12.346Z,94.33
2022-11-16T05:09:46.663Z,93.94
2022-11-16T05:12:19.661Z,94.12
2022-11-16T05:14:46.118Z,94.07
2022-11-16T05:17:13.887Z,94.10
2022-11-16T05:19:58.812Z,93.98
2022-11-16T05:22:25.508Z,94.19
2022-11-16T05:24:52.347Z,93.97
2022-11-16T05:27:20.634Z,94.06
2022-11-16T05:29:49.395Z,93.99
2022-11-16T05:32:16.343Z,94.13
2022-11-16T05:34:42.809Z,94.07
2022-11-16T05:37:09.201Z,94.38
2022-11-16T05:39:35.914Z,94.01
2022-11-16T05:42:02.298Z,94.35
2022-11-16T05:44:28.817Z,94.37
2022-11-16T05:46:56.032Z,94.21
2022-11-16T05:49:22.709Z,94.33
2022-11-16T05:51:49.877Z,94.21
2022-11-16T05:54:19.080Z,93.86
2022-11-16T05:56:46.722Z,93.99
2022-11-16T05:59:16.590Z,94.04
2022-11-16T06:01:43.585Z,94.10
2022-11-16T06:04:10.015Z,94.30
2022-11-16T06:06:36.509Z,94.16
2022-11-16T06:09:03.352Z,93.97
2022-11-16T06:11:35.333Z,94.10
2022-11-16T06:14:02.245Z,93.84
2022-11-16T06:16:28.564Z,93.94
2022-11-16T06:18:54.919Z,93.55
2022-11-16T06:21:21.253Z,93.68
2022-11-16T06:23:47.625Z,93.80
2022-11-16T06:26:14.058Z,93.80
2022-11-16T06:28:40.517Z,93.64
2022-11-16T06:31:07.011Z,93.95
2022-11-16T06:33:34.018Z,93.93
2022-11-16T06:36:00.480Z,93.57
2022-11-16T06:38:27.497Z,93.73
2022-11-16T06:40:56.373Z,93.73
2022-11-16T06:43:23.445Z,93.67
2022-11-16T06:45:55.559Z,93.75
2022-11-16T06:48:22.532Z,93.99
2022-11-16T06:50:49.841Z,94.08
2022-11-16T06:53:16.730Z,94.12
2022-11-16T06:55:43.117Z,94.59
2022-11-16T06:58:09.457Z,94.42
2022-11-16T07:00:35.857Z,94.14
2022-11-16T07:03:03.432Z,94.06
2022-11-16T07:05:30.470Z,94.09
2022-11-16T07:07:57.146Z,93.87
2022-11-16T07:10:23.791Z,93.67
2022-11-16T07:12:50.199Z,93.65
2022-11-16T07:15:16.974Z,93.24
2022-11-16T07:17:43.292Z,93.56
2022-11-16T07:20:11.874Z,93.84
2022-11-16T07:22:38.433Z,94.14
2022-11-16T07:25:05.149Z,94.13
2022-11-16T07:27:31.524Z,94.44
2022-11-16T07:29:57.850Z,94.34
2022-11-16T07:32:24.169Z,94.17
2022-11-16T07:34:50.450Z,94.17
2022-11-16T07:37:16.741Z,94.48
2022-11-16T07:39:43.517Z,94.70
2022-11-16T07:42:11.629Z,95.24
2022-11-16T07:44:38.780Z,94.70
2022-11-16T07:47:05.993Z,94.58
2022-11-16T07:49:32.397Z,94.27
2022-11-16T07:51:58.765Z,94.56
2022-11-16T07:54:25.104Z,94.45
2022-11-16T07:56:51.410Z,94.62
2022-11-16T07:59:17.738Z,94.50
2022-11-16T08:01:47.321Z,94.04
2022-11-16T08:04:15.301Z,94.14
2022-11-16T08:06:41.577Z,93.90
2022-11-16T08:09:08.894Z,94.38
2022-11-16T08:11:35.241Z,94.03
2022-11-16T08:14:01.589Z,93.68
2022-11-16T08:16:27.986Z,94.11
2022-11-16T08:18:54.406Z,94.06
2022-11-16T08:21:20.730Z,94.35
2022-11-16T08:23:47.419Z,94.34
2022-11-16T08:26:17.180Z,94.41
2022-11-16T08:28:45.792Z,94.47
2022-11-16T08:31:15.280Z,94.51
2022-11-16T08:33:41.875Z,94.24
2022-11-16T08:36:14.184Z,94.16
2022-11-16T08:38:41.042Z,94.62
2022-11-16T08:41:07.835Z,94.44
2022-11-16T08:43:35.697Z,94.37
2022-11-16T08:46:02.207Z,94.46
2022-11-16T08:48:28.579Z,94.21
2022-11-16T08:51:16.281Z,93.95
2022-11-16T08:53:41.339Z,93.82
2022-11-16T08:56:11.616Z,93.97
2022-11-16T08:58:38.125Z,93.84
2022-11-16T09:01:13.774Z,93.36
2022-11-16T09:03:41.335Z,93.45
2022-11-16T09:06:09.399Z,92.30
2022-11-16T09:08:37.397Z,92.70
2022-11-16T09:11:08.695Z,92.34
2022-11-16T09:13:35.061Z,92.01
2022-11-16T09:16:02.234Z,91.33
2022-11-16T09:18:29.047Z,90.83
2022-11-16T09:20:55.925Z,90.93
2022-11-16T09:23:25.474Z,90.48
2022-11-16T09:25:52.372Z,90.37
2022-11-16T09:28:19.559Z,89.16
2022-11-16T09:30:48.299Z,88.47
2022-11-16T09:33:14.674Z,87.82
2022-11-16T09:35:41.079Z,87.64
2022-11-16T09:38:09.730Z,88.14
2022-11-16T09:40:43.381Z,88.17
2022-11-16T09:43:29.259Z,87.71
2022-11-16T09:46:20.262Z,87.87
2022-11-16T09:48:48.224Z,87.62
2022-11-16T09:51:16.878Z,86.40
2022-11-16T09:53:54.953Z,84.49
2022-11-16T09:56:27.012Z,82.86
2022-11-16T09:59:11.097Z,82.75
2022-11-16T10:01:50.194Z,82.73
2022-11-16T10:04:38.451Z,80.95
2022-11-16T10:07:19.887Z,79.96
2022-11-16T10:09:46.747Z,78.66
2022-11-16T10:12:33.757Z,76.16
2022-11-16T10:15:15.394Z,74.19
2022-11-16T10:18:13.766Z,74.38
2022-11-16T10:20:51.159Z,73.26
2022-11-16T10:24:02.687Z,72.07
2022-11-16T10:26:35.602Z,71.47
2022-11-16T10:29:23.924Z,71.26
2022-11-16T10:32:08.030Z,71.61
2022-11-16T10:34:44.082Z,71.66
2022-11-16T10:37:12.841Z,71.56
2022-11-16T10:39:40.979Z,71.58
2022-11-16T10:42:13.250Z,72.99
2022-11-16T10:44:43.882Z,72.70
2022-11-16T10:47:38.474Z,72.67
2022-11-16T10:50:26.062Z,71.78
2022-11-16T10:52:52.403Z,70.52
2022-11-16T10:55:21.952Z,68.94
2022-11-16T10:58:01.290Z,68.36
2022-11-16T11:00:47.116Z,66.14
2022-11-16T11:03:14.459Z,66.34
2022-11-16T11:05:53.351Z,66.40
2022-11-16T11:08:32.975Z,64.96
2022-11-16T11:11:25.030Z,65.25
2022-11-16T11:14:08.644Z,66.33
2022-11-16T11:16:35.130Z,67.58
2022-11-16T11:19:33.776Z,67.72
2022-11-16T11:22:00.821Z,67.66
2022-11-16T11:24:45.015Z,68.05
2022-11-16T11:27:12.220Z,67.36
2022-11-16T11:29:42.873Z,66.98
2022-11-16T11:32:23.801Z,67.57
2022-11-16T11:34:53.636Z,67.58
2022-11-16T11:37:28.957Z,67.52
2022-11-16T11:40:28.644Z,68.12
2022-11-16T11:43:01.710Z,68.37
2022-11-16T11:45:52.003Z,67.64
2022-11-16T11:48:47.807Z,66.68
2022-11-16T11:51:31.236Z,65.19
2022-11-16T11:53:59.248Z,62.73
2022-11-16T11:56:30.093Z,60.97
2022-11-16T11:58:58.877Z,59.79
2022-11-16T12:02:16.470Z,58.15
2022-11-16T12:05:16.654Z,58.10
2022-11-16T12:08:04.777Z,57.44
2022-11-16T12:10:50.959Z,56.74
2022-11-16T12:13:32.349Z,57.18
2022-11-16T12:16:17.394Z,57.72
2022-11-16T12:18:49.826Z,58.69
2022-11-16T12:21:25.459Z,59.85
2022-11-16T12:24:19.454Z,61.09
2022-11-16T12:27:07.637Z,61.58
2022-11-16T12:29:49.090Z,60.62
2022-11-16T12:32:34.166Z,58.81
2022-11-16T12:35:27.749Z,58.52
2022-11-16T12:38:00.270Z,57.83
2022-11-16T12:40:37.473Z,57.13
2022-11-16T12:43:16.234Z,56.30
2022-11-16T12:46:05.971Z,56.60
2022-11-16T12:48:52.928Z,57.43
2022-11-16T12:51:41.463Z,58.72
2022-11-16T12:54:33.965Z,60.73
2022-11-16T12:57:21.265Z,62.70
2022-11-16T13:00:05.571Z,62.93
2022-11-16T13:02:58.409Z,63.44
2022-11-16T13:05:53.959Z,63.55
2022-11-16T13:08:43.521Z,63.13
2022-11-16T13:11:22.326Z,62.96
2022-11-16T13:13:55.265Z,62.88
2022-11-16T13:16:24.262Z,62.38
2022-11-16T13:18:52.092Z,61.37
2022-11-16T13:21:26.752Z,60.07
2022-11-16T13:24:08.402Z,59.81
2022-11-16T13:26:40.639Z,60.58
2022-11-16T13:29:19.085Z,60.87
2022-11-16T13:32:05.793Z,61.40
2022-11-16T13:34:35.432Z,61.32
2022-11-16T13:37:01.721Z,61.62
2022-11-16T13:39:55.974Z,62.03
2022-11-16T13:42:22.268Z,62.27
2022-11-16T13:44:51.561Z,61.83
2022-11-16T13:47:27.278Z,62.37
2022-11-16T13:50:03.234Z,62.85
2022-11-16T13:53:31.819Z,63.13
2022-11-16T13:55:32.191Z,62.68
2022-11-16T13:58:00.608Z,63.03
2022-11-16T14:00:30.142Z,62.95
2022-11-16T14:03:11.669Z,63.56
2022-11-16T14:05:41.474Z,64.07
2022-11-16T14:08:20.070Z,64.11
2022-11-16T14:10:52.351Z,64.08
2022-11-16T14:13:40.187Z,63.78
2022-11-16T14:16:19.426Z,64.22
2022-11-16T14:18:54.955Z,64.27
2022-11-16T14:22:20.934Z,65.54
2022-11-16T14:24:52.681Z,67.26
2022-11-16T14:27:30.483Z,68.01
2022-11-16T14:30:13.738Z,69.10
2022-11-16T14:32:49.286Z,69.97
2022-11-16T14:35:30.862Z,71.00
2022-11-16T14:38:00.206Z,71.54
2022-11-16T14:40:26.922Z,71.63
2022-11-16T14:45:48.334Z,72.49
2022-11-16T14:48:17.238Z,73.46
2022-11-16T14:50:47.989Z,73.83
2022-11-16T14:53:19.328Z,74.15
2022-11-16T14:55:46.140Z,75.15
2022-11-16T14:58:19.704Z,75.40
2022-11-16T15:00:53.844Z,76.22
2022-11-16T15:03:25.854Z,77.30
2022-11-16T15:05:52.448Z,78.34
2022-11-16T15:08:29.062Z,79.94
2022-11-16T15:10:56.546Z,80.87
2022-11-16T15:13:24.760Z,81.32
2022-11-16T15:16:08.758Z,81.45
2022-11-16T15:18:35.173Z,81.51
2022-11-16T15:21:01.483Z,81.86
2022-11-16T15:23:30.824Z,82.03
2022-11-16T15:26:00.147Z,82.33
2022-11-16T15:28:31.698Z,81.80
2022-11-16T15:31:00.759Z,81.82
2022-11-16T15:33:32.149Z,82.12
2022-11-16T15:35:59.162Z,82.03
2022-11-16T15:38:32.897Z,82.49
2022-11-16T15:41:01.990Z,82.81
2022-11-16T15:43:40.987Z,82.69
2022-11-16T15:46:13.914Z,82.51
2022-11-16T15:48:41.155Z,82.68
2022-11-16T15:51:17.722Z,82.87
2022-11-16T15:53:48.867Z,83.04
2022-11-16T15:56:26.986Z,83.05
2022-11-16T15:58:54.784Z,83.58
2022-11-16T16:01:22.412Z,83.67
2022-11-16T16:03:58.894Z,83.45
2022-11-16T16:06:51.311Z,83.37
2022-11-16T16:09:28.231Z,83.20
2022-11-16T16:12:19.405Z,83.41
2022-11-16T16:14:48.385Z,83.43
2022-11-16T16:17:45.365Z,83.65
2022-11-16T16:20:19.101Z,84.11
2022-11-16T16:22:46.069Z,84.56
2022-11-16T16:25:27.351Z,84.77
2022-11-16T16:27:53.713Z,84.49
2022-11-16T16:30:20.222Z,84.47
2022-11-16T16:32:53.125Z,84.55
2022-11-16T16:35:22.205Z,85.24
2022-11-16T16:37:51.790Z,85.12
2022-11-16T16:40:18.675Z,85.13
2022-11-16T16:42:48.027Z,85.32
2022-11-16T16:45:19.132Z,85.96
2022-11-16T16:47:46.016Z,86.49
2022-11-16T16:50:13.001Z,87.04
2022-11-16T16:52:39.742Z,87.55
2022-11-16T16:55:06.470Z,88.00
2022-11-16T16:57:32.765Z,88.23
2022-11-16T16:59:59.089Z,88.57
2022-11-16T17:02:26.666Z,88.86
2022-11-16T17:04:52.986Z,89.08
2022-11-16T17:07:19.420Z,89.38
2022-11-16T17:09:46.005Z,89.33
2022-11-16T17:12:12.429Z,89.41
2022-11-16T17:14:38.709Z,89.26
2022-11-16T17:17:05.116Z,89.39
2022-11-16T17:19:31.426Z,89.55
2022-11-16T17:21:58.297Z,89.54
2022-11-16T17:24:24.721Z,89.68
2022-11-16T17:26:51.060Z,89.94
2022-11-16T17:29:17.422Z,90.31
2022-11-16T17:31:47.177Z,91.15
2022-11-16T17:34:14.365Z,91.65
2022-11-16T17:36:41.362Z,92.06
2022-11-16T17:39:07.646Z,92.21
2022-11-16T17:41:34.060Z,92.83
2022-11-16T17:44:00.714Z,93.13
2022-11-16T17:46:27.090Z,93.15
2022-11-16T17:48:53.462Z,93.11
2022-11-16T17:51:22.154Z,93.02
2022-11-16T17:53:49.722Z,92.80
2022-11-16T17:56:18.952Z,92.34
2022-11-16T17:58:45.689Z,92.29
2022-11-16T18:01:13.238Z,92.71
2022-11-16T18:03:39.905Z,92.70
2022-11-16T18:06:09.235Z,92.27
2022-11-16T18:08:36.347Z,92.00
2022-11-16T18:11:07.099Z,91.73
2022-11-16T18:13:34.934Z,91.74
2022-11-16T18:16:10.221Z,91.77
2022-11-16T18:18:37.762Z,91.66
2022-11-16T18:21:05.549Z,91.52
2022-11-16T18:23:33.668Z,91.07
2022-11-16T18:26:00.751Z,90.99
2022-11-16T18:28:27.048Z,91.05
2022-11-16T18:31:02.040Z,90.75
2022-11-16T18:33:30.720Z,91.18
2022-11-16T18:35:57.174Z,91.43
2022-11-16T18:38:23.506Z,91.42
2022-11-16T18:41:11.742Z,91.75
2022-11-16T18:43:39.355Z,91.69
2022-11-16T18:46:05.714Z,91.58
2022-11-16T18:48:32.353Z,91.81
2022-11-16T18:50:59.810Z,91.50
2022-11-16T18:53:27.222Z,91.16
2022-11-16T18:55:57.894Z,90.98
2022-11-16T18:58:49.258Z,90.70
2022-11-16T19:01:14.623Z,90.85
2022-11-16T19:03:41.340Z,91.38
2022-11-16T19:06:09.267Z,91.85
2022-11-16T19:08:37.452Z,92.10
2022-11-16T19:11:14.628Z,92.07
2022-11-16T19:13:43.174Z,92.44
2022-11-16T19:16:11.889Z,92.89
2022-11-16T19:18:38.526Z,92.99
2022-11-16T19:21:05.869Z,93.05
2022-11-16T19:23:39.914Z,93.03
2022-11-16T19:26:06.953Z,93.28
2022-11-16T19:28:37.194Z,92.90
2022-11-16T19:31:30.557Z,92.41
2022-11-16T19:34:02.706Z,92.05
2022-11-16T19:36:30.687Z,92.07
2022-11-16T19:38:57.217Z,91.85
2022-11-16T19:41:24.328Z,91.08
2022-11-16T19:43:59.533Z,91.20
2022-11-16T19:46:28.242Z,91.27
2022-11-16T19:48:55.471Z,91.37
2022-11-16T19:51:24.552Z,90.68
2022-11-16T19:53:51.003Z,90.35
2022-11-16T19:56:19.755Z,90.53
2022-11-16T19:58:46.299Z,90.85
2022-11-16T20:01:18.632Z,91.03
2022-11-16T20:03:46.239Z,91.23
2022-11-16T20:06:20.529Z,91.29
2022-11-16T20:08:52.002Z,91.15
2022-11-16T20:11:28.172Z,91.19
2022-11-16T20:13:56.109Z,90.40
2022-11-16T20:16:25.001Z,89.31
2022-11-16T20:18:52.517Z,88.61
2022-11-16T20:21:21.526Z,88.24
2022-11-16T20:23:48.845Z,88.04
2022-11-16T20:26:15.226Z,88.31
2022-11-16T20:28:42.772Z,88.64
2022-11-16T20:31:14.744Z,89.16
2022-11-16T20:33:41.484Z,89.05
2022-11-16T20:36:10.106Z,89.53
2022-11-16T20:38:37.806Z,89.88
2022-11-16T20:41:17.869Z,90.27
2022-11-16T20:43:45.512Z,90.28
2022-11-16T20:46:13.984Z,90.36
2022-11-16T20:48:42.463Z,90.72
2022-11-16T20:51:13.137Z,90.77
2022-11-16T20:53:39.509Z,90.83
2022-11-16T20:56:07.572Z,90.63
2022-11-16T20:58:34.709Z,90.77
2022-11-16T21:01:02.562Z,90.28
2022-11-16T21:03:28.932Z,89.93
2022-11-16T21:05:55.668Z,89.57
2022-11-16T21:08:22.121Z,89.27
2022-11-16T21:10:48.582Z,89.08
2022-11-16T21:13:36.461Z,88.82
2022-11-16T21:16:05.560Z,88.58
2022-11-16T21:18:32.484Z,87.82
2022-11-16T21:21:02.825Z,87.98
2022-11-16T21:23:32.106Z,88.21
2022-11-16T21:26:05.228Z,88.44
2022-11-16T21:28:31.915Z,88.71
2022-11-16T21:31:00.159Z,88.91
2022-11-16T21:33:27.130Z,88.81
2022-11-16T21:35:54.441Z,88.74
2022-11-16T21:38:23.015Z,89.04
2022-11-16T21:40:49.722Z,88.96
2022-11-16T21:43:16.139Z,88.63
2022-11-16T21:45:46.600Z,88.36
2022-11-16T21:48:13.502Z,88.24
2022-11-16T21:50:40.119Z,88.17
2022-11-16T21:53:07.341Z,87.21
2022-11-16T21:55:34.337Z,87.26
2022-11-16T21:58:00.823Z,87.25
2022-11-16T22:00:27.712Z,86.75
2022-11-16T22:02:54.075Z,87.13
2022-11-16T22:05:39.213Z,85.94
2022-11-16T22:08:07.897Z,86.27
2022-11-16T22:10:34.407Z,86.52
2022-11-16T22:13:01.083Z,86.50
2022-11-16T22:15:27.738Z,86.39
2022-11-16T22:17:54.030Z,86.31
2022-11-16T22:20:20.840Z,86.14
2022-11-16T22:22:47.474Z,86.18
2022-11-16T22:25:13.978Z,86.25
2022-11-16T22:28:05.625Z,86.18
2022-11-16T22:30:26.840Z,86.46
2022-11-16T22:32:53.174Z,86.46
2022-11-16T22:35:19.453Z,86.66
2022-11-16T22:37:45.733Z,86.47
2022-11-16T22:40:17.593Z,86.63
2022-11-16T22:42:44.316Z,85.96
2022-11-16T22:45:10.656Z,85.78
2022-11-16T22:47:36.966Z,85.18
2022-11-16T22:50:03.928Z,85.37
2022-11-16T22:52:30.217Z,85.50
2022-11-16T22:54:56.534Z,85.93
2022-11-16T22:57:22.959Z,85.86
2022-11-16T22:59:49.296Z,86.69
2022-11-16T23:02:15.593Z,86.73
2022-11-16T23:04:41.882Z,86.23
2022-11-16T23:07:08.302Z,85.98
2022-11-16T23:09:34.637Z,85.80
2022-11-16T23:12:19.550Z,85.77
2022-11-16T23:15:04.497Z,85.87
2022-11-16T23:17:30.785Z,86.06
2022-11-16T23:20:17.766Z,86.98
2022-11-16T23:23:02.815Z,87.32
2022-11-16T23:25:48.091Z,87.57
2022-11-16T23:28:15.933Z,88.10
2022-11-16T23:30:42.751Z,87.91
2022-11-16T23:33:09.809Z,87.87
2022-11-16T23:35:36.261Z,87.39
2022-11-16T23:38:04.629Z,87.22
2022-11-16T23:40:34.285Z,87.10
2022-11-16T23:43:19.391Z,86.92
2022-11-16T23:45:46.222Z,86.15
2022-11-16T23:48:14.698Z,86.79
2022-11-16T23:50:42.009Z,86.39
2022-11-16T23:53:09.384Z,86.56
2022-11-16T23:55:38.276Z,86.19
2022-11-16T23:58:05.350Z,86.35
